Time;durP1;ratioP1;P1;durP2;ratioP2;P2;SDS_P1;SDS_P2;PMS_P1;PMS_P2;Temp;Humidity;BMP_temperature;BMP_pressure;BME280_temperature;BME280_humidity;BME280_pressure;Samples;Min_cycle;Max_cycle;Signal;HPM_P1;HPM_P2
2021/12/20 00:00:23;;;;;;;12.15;9.38;;;3.20;99.90;;;;;;4979628;28;20034;-74
2021/12/20 00:02:53;;;;;;;13.88;9.95;;;3.20;99.90;;;;;;4982318;28;20033;-75
2021/12/20 00:05:19;;;;;;;11.95;9.45;;;3.20;99.90;;;;;;4973930;28;20091;-75
2021/12/20 00:07:46;;;;;;;16.38;10.52;;;3.20;99.90;;;;;;4979937;28;20018;-74
2021/12/20 00:10:12;;;;;;;13.20;9.32;;;3.10;99.90;;;;;;4967442;28;20040;-75
2021/12/20 00:12:37;;;;;;;14.90;8.88;;;3.20;99.90;;;;;;4971547;28;20031;-74
2021/12/20 00:15:04;;;;;;;13.13;9.45;;;3.20;99.90;;;;;;4976073;28;20026;-75
2021/12/20 00:17:30;;;;;;;11.02;8.48;;;3.20;99.90;;;;;;4978664;28;20023;-75
2021/12/20 00:19:56;;;;;;;10.20;7.53;;;3.20;99.90;;;;;;4976979;28;20025;-74
2021/12/20 00:22:21;;;;;;;8.95;7.10;;;3.30;99.90;;;;;;4971744;28;20135;-74
2021/12/20 00:24:47;;;;;;;10.48;7.30;;;3.30;99.90;;;;;;4981378;28;20443;-73
2021/12/20 00:27:14;;;;;;;11.35;7.82;;;3.20;99.90;;;;;;4992060;28;20448;-73
2021/12/20 00:29:40;;;;;;;11.25;7.10;;;3.20;99.90;;;;;;4982208;28;20029;-73
2021/12/20 00:32:06;;;;;;;10.93;6.70;;;3.20;99.90;;;;;;4978475;28;20035;-73
2021/12/20 00:34:33;;;;;;;9.15;7.43;;;3.10;99.90;;;;;;4971171;28;20070;-74
2021/12/20 00:37:04;;;;;;;9.68;7.32;;;3.10;99.90;;;;;;4978309;28;20015;-74
2021/12/20 00:42:15;;;;;;;9.65;7.35;;;3.00;99.90;;;;;;4978437;28;20101;-75
2021/12/20 00:44:41;;;;;;;10.35;7.15;;;3.20;99.90;;;;;;4972228;28;20477;-74
2021/12/20 00:47:07;;;;;;;9.77;7.55;;;3.10;99.90;;;;;;4972628;28;20027;-74
2021/12/20 00:49:32;;;;;;;9.90;6.63;;;3.20;99.90;;;;;;4978384;28;20025;-74
2021/12/20 00:51:58;;;;;;;7.65;6.22;;;3.30;99.90;;;;;;4971222;28;20054;-75
2021/12/20 00:54:24;;;;;;;8.07;6.40;;;3.20;99.90;;;;;;4977771;28;20397;-75
2021/12/20 00:56:50;;;;;;;9.43;5.90;;;3.20;99.90;;;;;;4974251;28;20050;-75
2021/12/20 00:59:15;;;;;;;9.00;6.25;;;3.40;99.90;;;;;;4977150;28;20061;-75
2021/12/20 01:01:41;;;;;;;8.10;5.45;;;3.30;99.90;;;;;;4974889;28;20462;-75
2021/12/20 01:04:07;;;;;;;7.68;5.93;;;3.30;99.90;;;;;;4972615;28;20428;-75
2021/12/20 01:06:33;;;;;;;8.07;6.43;;;3.30;99.90;;;;;;4970796;28;20057;-74
2021/12/20 01:08:59;;;;;;;6.90;5.93;;;3.40;99.90;;;;;;4975243;28;20054;-73
2021/12/20 01:11:27;;;;;;;7.93;6.15;;;3.30;99.90;;;;;;4984943;28;20035;-73
2021/12/20 01:13:53;;;;;;;8.20;6.40;;;3.40;99.90;;;;;;4991709;28;20734;-75
2021/12/20 01:16:29;;;;;;;6.60;5.90;;;3.40;99.90;;;;;;4981197;28;20026;-75
2021/12/20 01:18:55;;;;;;;8.45;6.20;;;3.40;99.90;;;;;;4975801;28;20689;-76
2021/12/20 01:21:20;;;;;;;8.10;6.03;;;3.50;99.90;;;;;;4975661;28;20027;-75
2021/12/20 01:23:46;;;;;;;9.00;6.63;;;3.50;99.90;;;;;;4982519;28;20023;-74
2021/12/20 01:26:11;;;;;;;8.30;5.65;;;3.50;99.90;;;;;;4994196;28;20022;-74
2021/12/20 01:28:39;;;;;;;8.13;5.82;;;3.40;99.90;;;;;;4978333;28;20033;-76
2021/12/20 01:31:05;;;;;;;8.90;6.60;;;3.50;99.90;;;;;;4975522;28;20023;-73
2021/12/20 01:33:30;;;;;;;8.15;6.40;;;3.40;99.90;;;;;;4981814;28;20061;-73
2021/12/20 01:35:56;;;;;;;7.40;5.90;;;3.30;99.90;;;;;;4981679;28;20035;-73
2021/12/20 01:38:22;;;;;;;10.85;6.10;;;3.20;99.90;;;;;;4987505;28;20038;-73
2021/12/20 01:40:48;;;;;;;9.40;6.82;;;3.20;99.90;;;;;;4975272;28;20061;-73
2021/12/20 01:43:16;;;;;;;8.40;6.72;;;3.20;99.90;;;;;;4982673;28;20053;-74
2021/12/20 01:45:42;;;;;;;7.90;6.45;;;3.30;99.90;;;;;;4981604;28;20027;-74
2021/12/20 01:48:11;;;;;;;11.52;8.10;;;3.30;99.90;;;;;;4985909;28;20114;-74
2021/12/20 01:53:27;;;;;;;11.05;8.57;;;3.30;99.90;;;;;;4975561;28;20030;-74
2021/12/20 01:55:54;;;;;;;10.93;8.02;;;3.30;99.90;;;;;;4979833;28;20023;-75
2021/12/20 01:58:20;;;;;;;11.38;8.57;;;3.30;99.90;;;;;;4986462;28;20030;-75
2021/12/20 02:03:32;;;;;;;15.00;10.02;;;3.10;99.90;;;;;;4981536;28;20037;-74
2021/12/20 02:05:59;;;;;;;11.07;8.52;;;3.10;99.90;;;;;;4985521;28;20029;-74
2021/12/20 02:08:28;;;;;;;11.82;8.98;;;3.10;99.90;;;;;;4989081;28;20022;-75
2021/12/20 02:10:58;;;;;;;9.65;7.60;;;3.20;99.90;;;;;;4984690;28;20089;-76
2021/12/20 02:13:28;;;;;;;11.95;8.75;;;3.20;99.90;;;;;;4987972;28;20447;-76
2021/12/20 02:15:55;;;;;;;12.40;8.73;;;3.20;99.90;;;;;;4982616;28;20068;-76
2021/12/20 02:18:21;;;;;;;10.63;8.57;;;3.10;99.90;;;;;;4994156;28;20022;-75
2021/12/20 02:20:47;;;;;;;10.80;8.48;;;3.10;99.90;;;;;;4984639;28;20029;-76
2021/12/20 02:23:13;;;;;;;17.65;11.65;;;3.10;99.90;;;;;;4987813;28;20417;-77
2021/12/20 02:25:39;;;;;;;15.68;11.80;;;3.10;99.90;;;;;;4981901;28;20104;-74
2021/12/20 02:28:11;;;;;;;18.20;12.18;;;2.90;99.90;;;;;;4977863;28;20066;-74
2021/12/20 02:38:36;;;;;;;18.65;12.60;;;3.00;99.90;;;;;;4984018;28;20495;-73
2021/12/20 02:41:10;;;;;;;15.60;11.43;;;2.90;99.90;;;;;;4977680;28;20027;-73
2021/12/20 02:43:41;;;;;;;15.68;11.52;;;2.90;99.90;;;;;;4974019;28;20027;-73
2021/12/20 02:48:55;;;;;;;16.75;12.07;;;2.90;99.90;;;;;;4980360;28;20023;-74
2021/12/20 02:51:23;;;;;;;12.48;9.63;;;3.00;99.90;;;;;;4988019;28;20031;-74
2021/12/20 02:53:53;;;;;;;13.93;10.05;;;2.90;99.90;;;;;;4986980;28;20045;-75
2021/12/20 02:56:18;;;;;;;13.60;10.80;;;2.90;99.90;;;;;;4982168;28;20148;-75
2021/12/20 02:58:44;;;;;;;15.52;10.43;;;2.90;99.90;;;;;;4980217;28;20117;-75
2021/12/20 03:01:10;;;;;;;15.27;11.52;;;2.90;99.90;;;;;;4984352;28;20023;-75
2021/12/20 03:03:35;;;;;;;18.10;13.07;;;2.80;99.90;;;;;;4985450;28;20022;-74
2021/12/20 03:06:18;;;;;;;16.52;13.02;;;3.00;99.90;;;;;;4981756;28;20038;-75
2021/12/20 03:08:48;;;;;;;24.45;15.18;;;3.00;99.90;;;;;;4976649;28;20023;-75
2021/12/20 03:11:14;;;;;;;24.38;14.77;;;2.90;99.90;;;;;;4983093;28;20488;-74
2021/12/20 03:13:41;;;;;;;18.77;12.63;;;2.80;99.90;;;;;;4980136;28;20033;-74
2021/12/20 03:16:07;;;;;;;17.58;12.93;;;2.80;99.90;;;;;;4981973;28;20058;-74
2021/12/20 03:18:32;;;;;;;25.30;17.13;;;2.80;99.90;;;;;;4986576;28;20488;-75
2021/12/20 03:20:58;;;;;;;16.73;10.68;;;2.70;99.90;;;;;;4984348;28;20031;-75
2021/12/20 03:23:23;;;;;;;30.58;18.20;;;2.80;99.90;;;;;;4978583;28;20022;-75
2021/12/20 03:25:49;;;;;;;15.90;12.23;;;2.70;99.90;;;;;;4982119;28;20386;-75
2021/12/20 03:28:14;;;;;;;14.15;8.60;;;2.70;99.90;;;;;;4986670;28;20058;-75
2021/12/20 03:30:40;;;;;;;13.50;9.25;;;2.70;99.90;;;;;;4982054;28;20018;-75
2021/12/20 03:33:06;;;;;;;15.48;10.10;;;2.80;99.90;;;;;;4987464;28;20027;-75
2021/12/20 03:35:31;;;;;;;19.45;16.65;;;2.70;99.90;;;;;;4988756;28;20022;-75
2021/12/20 03:37:57;;;;;;;16.80;11.32;;;2.70;99.90;;;;;;4987020;28;20027;-74
2021/12/20 03:40:23;;;;;;;14.70;9.20;;;2.70;99.90;;;;;;4983551;28;20072;-75
2021/12/20 03:42:49;;;;;;;14.88;9.05;;;2.70;99.90;;;;;;4978515;28;20373;-75
2021/12/20 03:45:16;;;;;;;10.35;7.75;;;2.60;99.90;;;;;;4992600;28;20023;-75
2021/12/20 03:47:43;;;;;;;11.73;7.15;;;2.50;99.90;;;;;;4979839;28;20034;-74
2021/12/20 03:50:10;;;;;;;10.45;7.30;;;2.60;99.90;;;;;;4980841;28;20620;-75
2021/12/20 03:52:38;;;;;;;11.05;7.22;;;2.60;99.90;;;;;;4971902;28;20037;-75
2021/12/20 03:55:09;;;;;;;12.32;7.78;;;2.60;99.90;;;;;;4983792;28;20045;-75
2021/12/20 03:57:34;;;;;;;13.18;8.35;;;2.50;99.90;;;;;;4978055;28;20022;-75
2021/12/20 04:00:03;;;;;;;11.43;7.13;;;2.40;99.90;;;;;;4991007;28;20110;-75
2021/12/20 04:02:31;;;;;;;11.90;7.85;;;2.30;99.90;;;;;;4979442;28;20022;-75
2021/12/20 04:04:56;;;;;;;14.07;7.28;;;2.30;99.90;;;;;;4980318;28;20477;-75
2021/12/20 04:07:22;;;;;;;11.73;7.40;;;2.20;99.90;;;;;;4986045;28;20035;-73
2021/12/20 04:09:47;;;;;;;13.95;7.93;;;2.20;99.90;;;;;;4973054;28;20031;-74
2021/12/20 04:12:13;;;;;;;16.50;9.93;;;2.10;99.90;;;;;;4985938;28;20083;-74
2021/12/20 04:14:39;;;;;;;12.15;7.35;;;2.10;99.90;;;;;;4991005;28;20504;-74
2021/12/20 04:17:04;;;;;;;13.23;7.05;;;1.90;99.90;;;;;;4978382;28;20484;-73
2021/12/20 04:19:30;;;;;;;10.77;6.50;;;1.90;99.90;;;;;;4979644;28;20033;-74
2021/12/20 04:21:55;;;;;;;12.68;7.57;;;2.00;99.90;;;;;;4988844;28;20088;-73
2021/12/20 04:24:21;;;;;;;12.63;7.93;;;2.00;99.90;;;;;;4989298;28;20056;-73
2021/12/20 04:26:46;;;;;;;15.07;9.27;;;1.90;99.90;;;;;;4979445;28;20081;-74
2021/12/20 04:29:12;;;;;;;15.68;10.27;;;1.80;99.90;;;;;;4979887;28;20031;-75
2021/12/20 04:31:37;;;;;;;17.30;10.05;;;1.70;99.90;;;;;;4978019;28;20035;-75
2021/12/20 04:34:03;;;;;;;15.82;9.13;;;1.50;99.90;;;;;;4978846;28;20695;-75
2021/12/20 04:36:30;;;;;;;19.60;10.90;;;1.40;99.90;;;;;;4985823;28;20038;-75
2021/12/20 04:38:56;;;;;;;17.88;11.13;;;1.40;99.90;;;;;;4984989;28;20030;-75
2021/12/20 04:41:21;;;;;;;23.77;11.95;;;1.30;99.90;;;;;;4979065;28;20027;-75
2021/12/20 04:43:47;;;;;;;16.27;10.07;;;1.30;99.90;;;;;;4979671;28;20015;-75
2021/12/20 04:46:12;;;;;;;16.33;10.65;;;1.20;99.90;;;;;;4985395;28;20389;-75
2021/12/20 04:48:38;;;;;;;15.25;10.93;;;1.20;99.90;;;;;;4985357;28;20429;-75
2021/12/20 04:51:03;;;;;;;17.25;9.98;;;1.00;99.90;;;;;;4982691;28;20109;-75
2021/12/20 04:53:29;;;;;;;20.10;11.13;;;1.10;99.90;;;;;;4983888;28;20023;-75
2021/12/20 04:55:54;;;;;;;18.25;10.38;;;0.90;99.90;;;;;;4989092;28;20034;-74
2021/12/20 04:58:20;;;;;;;18.00;11.23;;;0.90;99.90;;;;;;4988133;28;20117;-74
2021/12/20 05:00:46;;;;;;;14.90;9.60;;;1.00;99.90;;;;;;4976036;28;20548;-75
2021/12/20 05:03:11;;;;;;;16.48;11.50;;;0.90;99.90;;;;;;4976180;28;20031;-75
2021/12/20 05:05:37;;;;;;;15.82;10.10;;;0.80;99.90;;;;;;4988971;28;20445;-74
2021/12/20 05:08:03;;;;;;;17.77;9.00;;;0.70;99.90;;;;;;4986095;28;20034;-75
2021/12/20 05:10:33;;;;;;;16.77;10.90;;;0.70;99.90;;;;;;4979236;28;20042;-75
2021/12/20 05:13:01;;;;;;;22.33;13.23;;;0.60;99.90;;;;;;4983471;28;20057;-75
2021/12/20 05:15:28;;;;;;;25.83;14.00;;;0.60;99.90;;;;;;5002998;28;20033;-74
2021/12/20 05:17:54;;;;;;;21.92;13.32;;;0.50;99.90;;;;;;4980321;28;20034;-74
2021/12/20 05:20:20;;;;;;;19.58;11.73;;;0.60;99.90;;;;;;4981256;28;20023;-75
2021/12/20 05:22:46;;;;;;;25.52;11.82;;;0.60;99.90;;;;;;4995422;28;20019;-74
2021/12/20 05:25:11;;;;;;;19.48;9.75;;;0.70;99.90;;;;;;4995110;28;20381;-74
2021/12/20 05:27:37;;;;;;;20.35;10.35;;;0.70;99.90;;;;;;4993990;28;20033;-75
2021/12/20 05:30:05;;;;;;;24.65;12.98;;;0.60;99.90;;;;;;4982032;28;20034;-75
2021/12/20 05:32:31;;;;;;;20.15;9.48;;;0.50;99.90;;;;;;4983379;28;20030;-74
2021/12/20 05:34:57;;;;;;;18.83;10.57;;;0.40;99.90;;;;;;4988576;28;20027;-73
2021/12/20 05:37:22;;;;;;;25.65;11.60;;;0.40;99.90;;;;;;4987007;28;20037;-72
2021/12/20 05:39:48;;;;;;;22.85;12.15;;;0.40;99.90;;;;;;4981766;28;20023;-73
2021/12/20 05:42:13;;;;;;;18.80;11.75;;;0.40;99.90;;;;;;4983510;28;20113;-72
2021/12/20 05:44:39;;;;;;;26.35;13.65;;;0.40;99.90;;;;;;4988229;28;20054;-74
2021/12/20 05:47:05;;;;;;;20.73;12.93;;;0.30;99.90;;;;;;4993789;28;20484;-73
2021/12/20 05:49:31;;;;;;;24.23;13.73;;;0.20;99.90;;;;;;4977152;28;20038;-75
2021/12/20 05:52:03;;;;;;;25.42;14.48;;;0.20;99.90;;;;;;4986623;28;20113;-75
2021/12/20 05:54:29;;;;;;;33.50;17.20;;;0.10;99.90;;;;;;4974979;28;20049;-76
2021/12/20 05:56:54;;;;;;;22.20;14.85;;;0.10;99.90;;;;;;4977797;28;20042;-74
2021/12/20 05:59:20;;;;;;;31.13;15.52;;;0.10;99.90;;;;;;4992345;28;20092;-75
2021/12/20 06:01:45;;;;;;;26.10;14.15;;;0.10;99.90;;;;;;4975706;28;20023;-77
2021/12/20 06:04:11;;;;;;;23.77;13.45;;;0.20;99.90;;;;;;4978489;28;20480;-76
2021/12/20 06:06:36;;;;;;;26.75;14.27;;;0.20;99.90;;;;;;4981849;28;20038;-75
2021/12/20 06:09:02;;;;;;;21.70;13.70;;;0.10;99.90;;;;;;4985054;28;20023;-75
2021/12/20 06:11:28;;;;;;;22.80;13.77;;;0.10;99.90;;;;;;4986227;28;20109;-75
2021/12/20 06:13:54;;;;;;;21.75;12.85;;;0.10;99.90;;;;;;4986844;28;20031;-75
2021/12/20 06:16:20;;;;;;;23.50;13.02;;;0.20;99.90;;;;;;4986850;28;20104;-76
2021/12/20 06:18:45;;;;;;;22.65;11.02;;;0.20;99.90;;;;;;4980061;28;20489;-75
2021/12/20 06:21:11;;;;;;;18.70;9.15;;;0.00;99.90;;;;;;4980574;28;20042;-75
2021/12/20 06:23:36;;;;;;;21.73;10.50;;;0.10;99.90;;;;;;4980411;28;20555;-75
2021/12/20 06:26:03;;;;;;;17.95;10.50;;;0.10;99.90;;;;;;4980465;28;20069;-75
2021/12/20 06:28:29;;;;;;;17.45;9.98;;;0.10;99.90;;;;;;4987539;28;20676;-76
2021/12/20 06:30:54;;;;;;;20.95;10.52;;;0.10;99.90;;;;;;4986973;28;20022;-76
2021/12/20 06:33:20;;;;;;;22.17;9.65;;;0.20;99.90;;;;;;4981066;28;20397;-75
2021/12/20 06:35:46;;;;;;;23.90;12.75;;;0.20;99.90;;;;;;4980095;28;20488;-76
2021/12/20 06:38:18;;;;;;;23.35;11.85;;;0.20;99.90;;;;;;4987386;28;20059;-77
2021/12/20 06:40:44;;;;;;;17.83;9.70;;;0.10;99.90;;;;;;4986263;28;20029;-75
2021/12/20 06:43:10;;;;;;;20.45;11.90;;;0.20;99.90;;;;;;4981572;28;20113;-74
2021/12/20 06:45:35;;;;;;;21.00;11.77;;;0.10;99.90;;;;;;4986835;28;20081;-74
2021/12/20 06:48:02;;;;;;;20.30;12.13;;;0.10;99.90;;;;;;4993661;28;20034;-75
2021/12/20 06:50:28;;;;;;;20.92;12.90;;;0.00;99.90;;;;;;4979106;28;20378;-75
2021/12/20 06:52:53;;;;;;;24.38;13.20;;;-0.10;99.90;;;;;;4986429;28;20137;-75
2021/12/20 06:55:19;;;;;;;24.20;13.77;;;-0.10;99.90;;;;;;4987384;28;20105;-76
2021/12/20 06:57:44;;;;;;;25.90;13.35;;;-0.10;99.90;;;;;;4981180;28;20030;-75
2021/12/20 07:00:10;;;;;;;25.42;16.65;;;-0.10;99.90;;;;;;4980351;28;20027;-75
2021/12/20 07:02:36;;;;;;;22.27;14.05;;;-0.10;99.90;;;;;;4986737;28;20077;-75
2021/12/20 07:05:02;;;;;;;27.45;15.98;;;0.00;99.90;;;;;;4986737;28;20077;-75
2021/12/20 07:07:29;;;;;;;24.98;15.27;;;-0.10;99.90;;;;;;4965837;28;20056;-75
2021/12/20 07:09:54;;;;;;;19.88;13.57;;;-0.10;99.90;;;;;;4978013;28;20027;-75
2021/12/20 07:12:20;;;;;;;25.48;12.73;;;-0.10;99.90;;;;;;4986013;28;20385;-75
2021/12/20 07:14:49;;;;;;;18.48;11.45;;;-0.20;99.90;;;;;;4991584;28;20037;-75
2021/12/20 07:17:15;;;;;;;25.20;14.27;;;-0.20;99.90;;;;;;4991992;28;20026;-75
2021/12/20 07:19:41;;;;;;;30.90;16.08;;;-0.40;99.90;;;;;;4979969;28;20382;-75
2021/12/20 07:22:07;;;;;;;30.02;16.70;;;-0.50;99.90;;;;;;4985859;28;20078;-75
2021/12/20 07:24:32;;;;;;;32.47;18.67;;;-0.50;99.90;;;;;;4986253;28;20037;-75
2021/12/20 07:26:58;;;;;;;21.92;14.90;;;-0.50;99.90;;;;;;4974003;28;20034;-75
2021/12/20 07:29:23;;;;;;;30.63;15.70;;;-0.50;99.90;;;;;;4974475;28;20734;-76
2021/12/20 07:31:49;;;;;;;25.48;14.32;;;-0.60;99.90;;;;;;4990110;28;20080;-76
2021/12/20 07:34:15;;;;;;;24.25;15.52;;;-0.60;99.90;;;;;;4991321;28;20448;-76
2021/12/20 07:36:41;;;;;;;25.05;12.48;;;-0.60;99.90;;;;;;4985432;28;20489;-76
2021/12/20 07:39:07;;;;;;;17.42;9.02;;;-0.60;99.90;;;;;;4986246;28;20037;-76
2021/12/20 07:41:32;;;;;;;21.80;11.70;;;-0.50;99.90;;;;;;4980635;28;20023;-76
2021/12/20 07:43:58;;;;;;;26.05;11.65;;;-0.20;99.90;;;;;;4979417;28;20101;-75
2021/12/20 07:46:23;;;;;;;19.80;10.32;;;-0.50;99.90;;;;;;4984887;28;20030;-75
2021/12/20 07:48:50;;;;;;;21.60;10.68;;;-0.50;99.90;;;;;;4986162;28;20026;-75
2021/12/20 07:51:16;;;;;;;22.58;12.57;;;-0.30;99.90;;;;;;4991391;28;20060;-75
2021/12/20 07:53:42;;;;;;;27.00;11.40;;;-0.30;99.90;;;;;;4978557;28;20477;-75
2021/12/20 07:56:08;;;;;;;27.63;16.83;;;-0.20;99.90;;;;;;4992303;28;20065;-75
2021/12/20 07:58:34;;;;;;;26.13;13.93;;;-0.20;99.90;;;;;;4978118;28;20500;-75
2021/12/20 08:01:01;;;;;;;25.15;12.27;;;-0.20;99.90;;;;;;4984115;28;20392;-74
2021/12/20 08:03:27;;;;;;;28.60;13.70;;;-0.20;99.90;;;;;;4984901;28;20026;-75
2021/12/20 08:05:53;;;;;;;27.17;12.63;;;-0.10;99.90;;;;;;4978921;28;20029;-75
2021/12/20 08:08:19;;;;;;;20.42;10.65;;;-0.10;99.90;;;;;;4978904;28;20031;-75
2021/12/20 08:10:45;;;;;;;26.95;11.75;;;-0.10;99.90;;;;;;4979937;28;20062;-75
2021/12/20 08:13:12;;;;;;;25.15;11.63;;;0.00;99.90;;;;;;4979311;28;20125;-75
2021/12/20 08:15:38;;;;;;;23.05;11.07;;;0.00;99.90;;;;;;4983963;28;20049;-75
2021/12/20 08:18:04;;;;;;;27.75;13.60;;;0.00;99.90;;;;;;4985861;28;20468;-75
2021/12/20 08:20:30;;;;;;;23.60;12.27;;;-0.10;99.90;;;;;;4979779;28;20031;-75
2021/12/20 08:22:56;;;;;;;21.98;11.70;;;-0.30;99.90;;;;;;4990372;28;20029;-75
2021/12/20 08:25:21;;;;;;;23.05;12.27;;;-0.20;99.90;;;;;;4982845;28;20053;-75
2021/12/20 08:27:48;;;;;;;25.92;10.85;;;-0.10;99.90;;;;;;4983204;28;20113;-75
2021/12/20 08:30:14;;;;;;;29.23;13.95;;;0.00;99.90;;;;;;4987728;28;20158;-75
2021/12/20 08:32:39;;;;;;;19.77;11.00;;;0.00;99.90;;;;;;4989947;28;20471;-75
2021/12/20 08:35:07;;;;;;;23.75;10.73;;;-0.20;99.90;;;;;;4983589;28;20044;-74
2021/12/20 08:37:32;;;;;;;18.10;10.05;;;-0.10;99.90;;;;;;4981639;28;20043;-74
2021/12/20 08:39:58;;;;;;;21.50;11.57;;;-0.10;99.90;;;;;;4987600;28;20019;-74
2021/12/20 08:42:24;;;;;;;23.10;10.68;;;0.00;99.90;;;;;;4994271;28;20026;-75
2021/12/20 08:44:49;;;;;;;27.92;12.05;;;0.10;99.90;;;;;;4982030;28;20027;-74
2021/12/20 08:47:16;;;;;;;23.75;12.98;;;0.00;99.90;;;;;;4983042;28;20058;-74
2021/12/20 08:49:42;;;;;;;26.33;11.68;;;0.00;99.90;;;;;;4988740;28;20035;-75
2021/12/20 08:52:08;;;;;;;29.98;13.10;;;0.10;99.90;;;;;;4989379;28;20032;-74
2021/12/20 08:54:33;;;;;;;26.13;11.48;;;0.10;99.90;;;;;;4983385;28;20054;-75
2021/12/20 08:56:59;;;;;;;18.98;10.25;;;0.20;99.90;;;;;;4981268;28;20066;-75
2021/12/20 08:59:25;;;;;;;24.95;10.80;;;0.30;99.90;;;;;;4987239;28;20027;-74
2021/12/20 09:01:51;;;;;;;23.95;12.73;;;0.30;99.90;;;;;;4989155;28;20031;-75
2021/12/20 09:04:17;;;;;;;26.10;12.27;;;0.50;99.90;;;;;;4983185;28;20137;-75
2021/12/20 09:06:44;;;;;;;25.60;13.00;;;0.30;99.90;;;;;;4980519;28;20066;-75
2021/12/20 09:09:13;;;;;;;27.02;13.65;;;0.30;99.90;;;;;;4974760;28;20034;-75
2021/12/20 09:11:39;;;;;;;27.10;15.82;;;0.40;99.90;;;;;;4988848;28;20038;-75
2021/12/20 09:14:06;;;;;;;24.38;13.32;;;0.50;99.90;;;;;;4982431;28;20030;-75
2021/12/20 09:16:31;;;;;;;31.50;16.25;;;0.50;99.90;;;;;;4981003;28;20038;-75
2021/12/20 09:18:57;;;;;;;28.95;15.02;;;0.40;99.90;;;;;;4986799;28;20027;-75
2021/12/20 09:21:23;;;;;;;34.22;16.10;;;0.50;99.90;;;;;;4987499;28;20023;-74
2021/12/20 09:23:49;;;;;;;27.48;15.02;;;0.50;99.90;;;;;;4984183;28;20019;-75
2021/12/20 09:26:15;;;;;;;22.85;13.07;;;0.60;99.90;;;;;;4980821;28;20034;-75
2021/12/20 09:28:41;;;;;;;26.10;12.27;;;0.50;99.90;;;;;;4986989;28;20018;-75
2021/12/20 09:31:08;;;;;;;21.40;11.25;;;0.60;99.90;;;;;;4992101;28;20026;-75
2021/12/20 09:33:35;;;;;;;19.17;9.32;;;0.70;99.90;;;;;;4982772;28;20022;-75
2021/12/20 09:36:00;;;;;;;19.15;8.63;;;0.70;99.90;;;;;;4981334;28;20023;-75
2021/12/20 09:38:28;;;;;;;20.98;9.10;;;0.70;99.90;;;;;;4986777;28;20078;-74
2021/12/20 09:43:47;;;;;;;18.55;8.75;;;0.70;99.90;;;;;;4985897;28;20030;-74
2021/12/20 09:46:15;;;;;;;14.48;9.40;;;0.80;99.90;;;;;;4980977;28;20061;-75
2021/12/20 09:48:49;;;;;;;22.67;10.27;;;0.90;99.90;;;;;;4982705;28;20034;-74
2021/12/20 09:51:16;;;;;;;20.55;9.98;;;0.90;99.90;;;;;;4969311;28;20026;-74
2021/12/20 09:53:42;;;;;;;22.30;10.13;;;1.00;99.90;;;;;;4994408;28;20130;-74
2021/12/20 09:56:08;;;;;;;19.30;10.52;;;1.00;99.90;;;;;;4974251;28;20122;-74
2021/12/20 09:58:37;;;;;;;20.08;10.52;;;1.00;99.90;;;;;;4988572;28;20077;-74
2021/12/20 10:01:06;;;;;;;76.72;56.65;;;1.10;99.90;;;;;;4965766;28;20531;-74
2021/12/20 10:03:32;;;;;;;26.08;13.70;;;1.10;99.90;;;;;;4979126;28;20042;-74
2021/12/20 10:05:58;;;;;;;19.05;10.02;;;1.10;99.90;;;;;;4973720;28;20022;-74
2021/12/20 10:08:41;;;;;;;24.77;10.45;;;1.10;99.90;;;;;;4979784;28;20060;-74
2021/12/20 10:11:18;;;;;;;23.13;10.07;;;1.20;99.90;;;;;;4966382;28;20436;-74
2021/12/20 10:13:44;;;;;;;23.20;9.80;;;1.20;99.90;;;;;;4973511;28;20023;-74
2021/12/20 10:16:19;;;;;;;23.38;10.10;;;1.20;99.90;;;;;;4973164;28;20029;-74
2021/12/20 10:18:45;;;;;;;22.17;9.43;;;1.30;99.90;;;;;;4971358;28;20081;-74
2021/12/20 10:21:10;;;;;;;22.48;10.27;;;1.30;99.90;;;;;;4987509;28;20072;-74
2021/12/20 10:23:44;;;;;;;23.52;9.48;;;1.40;99.90;;;;;;4979834;28;20121;-73
2021/12/20 10:26:12;;;;;;;19.08;8.35;;;1.50;99.90;;;;;;4993574;28;20485;-74
2021/12/20 10:28:39;;;;;;;15.23;7.43;;;1.50;99.90;;;;;;4981047;28;20069;-74
2021/12/20 10:31:10;;;;;;;20.35;7.80;;;1.50;99.90;;;;;;4973967;28;20500;-74
2021/12/20 10:33:37;;;;;;;18.90;7.57;;;1.60;99.90;;;;;;4974471;28;20129;-74
2021/12/20 10:36:09;;;;;;;16.00;7.85;;;1.70;99.90;;;;;;4974902;28;20366;-74
2021/12/20 10:38:43;;;;;;;20.30;8.55;;;1.60;99.90;;;;;;4977533;28;20033;-74
2021/12/20 10:41:16;;;;;;;20.40;8.57;;;1.50;99.90;;;;;;4977183;28;20029;-74
2021/12/20 10:43:50;;;;;;;14.35;5.97;;;1.70;99.90;;;;;;4975174;28;20046;-74
2021/12/20 10:46:31;;;;;;;14.13;5.85;;;1.70;99.90;;;;;;4992943;28;20049;-74
2021/12/20 10:49:03;;;;;;;15.25;5.47;;;1.80;99.90;;;;;;4983487;28;20026;-73
2021/12/20 10:51:35;;;;;;;11.65;5.75;;;1.80;99.90;;;;;;4982421;28;20026;-74
2021/12/20 10:54:08;;;;;;;13.48;5.60;;;1.90;99.90;;;;;;4982180;28;20022;-74
2021/12/20 10:56:37;;;;;;;13.88;5.90;;;1.90;99.90;;;;;;4988696;28;20030;-74
2021/12/20 10:59:09;;;;;;;13.77;5.63;;;2.00;99.90;;;;;;4975738;28;20536;-74
2021/12/20 11:04:25;;;;;;;18.77;9.13;;;2.00;99.90;;;;;;4966777;28;20023;-74
2021/12/20 11:09:38;;;;;;;10.18;5.25;;;2.10;99.90;;;;;;4974065;28;20019;-74
2021/12/20 11:12:07;;;;;;;11.57;4.85;;;2.10;99.90;;;;;;4979657;28;20058;-74
2021/12/20 11:14:38;;;;;;;11.55;4.65;;;2.20;99.90;;;;;;4973447;28;20489;-74
2021/12/20 11:17:06;;;;;;;11.15;5.10;;;2.20;99.90;;;;;;4987538;28;20035;-74
2021/12/20 11:19:34;;;;;;;15.30;5.45;;;2.20;99.90;;;;;;4973438;28;20033;-74
2021/12/20 11:22:05;;;;;;;12.43;4.70;;;2.20;99.90;;;;;;4983238;28;20027;-74
2021/12/20 11:24:36;;;;;;;6.63;3.70;;;2.20;99.90;;;;;;4972286;28;20421;-74
2021/12/20 11:27:03;;;;;;;8.13;4.00;;;2.30;99.90;;;;;;4965810;28;20073;-74
2021/12/20 11:29:30;;;;;;;10.27;4.85;;;2.30;99.90;;;;;;4980677;28;20088;-74
2021/12/20 11:31:57;;;;;;;11.60;4.50;;;2.30;99.90;;;;;;4974458;28;20023;-74
2021/12/20 11:34:23;;;;;;;8.68;4.00;;;2.30;99.90;;;;;;4974192;28;20098;-74
2021/12/20 11:36:49;;;;;;;8.27;3.20;;;2.30;99.90;;;;;;4982374;28;20031;-74
2021/12/20 11:39:15;;;;;;;8.40;3.28;;;2.30;99.90;;;;;;4984657;28;20021;-74
2021/12/20 11:41:40;;;;;;;8.30;2.80;;;2.30;99.90;;;;;;4984811;28;20019;-73
2021/12/20 11:44:11;;;;;;;10.18;4.10;;;2.30;99.90;;;;;;4980741;28;20033;-74
2021/12/20 11:46:46;;;;;;;10.80;3.65;;;2.40;99.90;;;;;;4981439;28;20384;-74
2021/12/20 11:49:18;;;;;;;9.18;4.30;;;2.40;99.90;;;;;;4986812;28;20037;-74
2021/12/20 11:52:16;;;;;;;9.57;4.15;;;2.40;99.90;;;;;;4975742;28;20035;-74
2021/12/20 11:54:46;;;;;;;11.40;4.30;;;2.50;99.90;;;;;;4969297;28;20507;-74
2021/12/20 11:57:32;;;;;;;8.02;4.03;;;2.50;99.90;;;;;;4975145;28;20073;-75
2021/12/20 12:00:02;;;;;;;11.35;4.00;;;2.40;99.90;;;;;;4983315;28;20018;-74
2021/12/20 12:02:30;;;;;;;16.10;4.50;;;2.50;99.90;;;;;;4992788;28;20101;-74
2021/12/20 12:04:58;;;;;;;11.15;4.15;;;2.60;99.90;;;;;;4974541;28;20023;-74
2021/12/20 12:07:26;;;;;;;11.57;4.57;;;2.60;99.90;;;;;;4973700;28;20026;-75
2021/12/20 12:10:14;;;;;;;10.25;4.05;;;2.60;99.90;;;;;;4970595;28;20027;-74
2021/12/20 12:12:42;;;;;;;8.95;4.30;;;2.60;99.90;;;;;;4967036;28;20034;-74
2021/12/20 12:15:14;;;;;;;10.20;4.15;;;2.60;99.90;;;;;;4974772;28;20073;-74
2021/12/20 12:18:04;;;;;;;6.97;3.28;;;2.60;99.90;;;;;;4975978;28;20027;-74
2021/12/20 12:20:53;;;;;;;9.30;3.60;;;2.60;99.90;;;;;;4975161;28;20029;-74
2021/12/20 12:23:25;;;;;;;8.32;4.18;;;2.60;99.90;;;;;;4972263;28;20383;-74
2021/12/20 12:25:57;;;;;;;7.72;3.30;;;2.60;99.90;;;;;;4972042;28;20019;-74
2021/12/20 12:28:25;;;;;;;11.27;3.67;;;2.50;99.90;;;;;;4982338;28;20030;-75
2021/12/20 12:30:58;;;;;;;8.50;3.25;;;2.50;99.90;;;;;;4974108;28;20046;-75
2021/12/20 12:33:27;;;;;;;5.57;3.15;;;2.60;99.90;;;;;;4974439;28;20515;-75
2021/12/20 12:35:55;;;;;;;8.30;3.78;;;2.70;99.90;;;;;;4982892;28;20038;-75
2021/12/20 12:38:31;;;;;;;8.27;3.60;;;2.70;99.90;;;;;;4971220;28;20026;-74
2021/12/20 12:41:05;;;;;;;9.25;3.45;;;2.70;99.90;;;;;;4974232;28;20019;-75
2021/12/20 12:43:50;;;;;;;8.43;3.55;;;2.70;99.90;;;;;;4984925;28;20050;-75
2021/12/20 12:46:36;;;;;;;7.00;3.37;;;2.70;99.90;;;;;;4972646;28;20021;-75
2021/12/20 12:49:24;;;;;;;9.13;3.47;;;2.80;99.90;;;;;;4981300;28;20080;-74
2021/12/20 12:52:15;;;;;;;8.82;3.78;;;2.70;99.90;;;;;;4983796;28;20094;-74
2021/12/20 12:54:56;;;;;;;8.45;3.80;;;2.90;99.90;;;;;;4978461;28;20389;-74
2021/12/20 12:57:21;;;;;;;8.50;3.95;;;2.80;99.90;;;;;;4970468;28;20019;-75
2021/12/20 12:59:50;;;;;;;6.53;3.10;;;2.80;99.90;;;;;;4975951;28;20078;-75
2021/12/20 13:02:29;;;;;;;6.00;2.95;;;2.90;99.90;;;;;;4989327;28;20022;-75
2021/12/20 13:04:59;;;;;;;8.10;3.35;;;2.80;99.90;;;;;;4968998;28;20030;-75
2021/12/20 13:07:27;;;;;;;9.52;3.30;;;2.80;99.90;;;;;;4991938;28;20050;-75
2021/12/20 13:09:55;;;;;;;8.32;3.38;;;2.90;99.90;;;;;;4977914;28;20023;-75
2021/12/20 13:12:43;;;;;;;10.02;3.70;;;2.90;99.90;;;;;;4988535;28;20027;-75